createdAt,value
2022-10-13T00:00:58.357Z,41.53
2022-10-13T00:03:25.241Z,41.90
2022-10-13T00:05:52.319Z,44.17
2022-10-13T00:08:22.376Z,45.67
2022-10-13T00:10:51.528Z,46.05
2022-10-13T00:13:20.749Z,46.55
2022-10-13T00:15:48.926Z,44.60
2022-10-13T00:18:16.227Z,43.78
2022-10-13T00:20:47.579Z,45.65
2022-10-13T00:23:14.754Z,41.00
2022-10-13T00:25:43.636Z,43.95
2022-10-13T00:28:12.433Z,36.97
2022-10-13T00:30:40.025Z,44.03
2022-10-13T00:33:07.404Z,38.92
2022-10-13T00:35:34.512Z,44.63
2022-10-13T00:38:02.435Z,39.55
2022-10-13T00:40:29.129Z,41.65
2022-10-13T00:42:55.934Z,42.45
2022-10-13T00:45:29.718Z,46.65
2022-10-13T00:48:00.515Z,39.92
2022-10-13T00:50:33.810Z,35.10
2022-10-13T00:53:01.653Z,37.30
2022-10-13T00:55:32.039Z,32.95
2022-10-13T00:58:05.220Z,35.15
2022-10-13T01:00:33.505Z,30.67
2022-10-13T01:03:01.713Z,32.53
2022-10-13T01:05:30.348Z,32.17
2022-10-13T01:07:58.176Z,30.98
2022-10-13T01:10:59.776Z,31.85
2022-10-13T01:14:03.303Z,33.17
2022-10-13T01:16:51.731Z,30.77
2022-10-13T01:19:36.598Z,37.95
2022-10-13T01:22:18.461Z,27.55
2022-10-13T01:24:56.374Z,32.25
2022-10-13T01:27:36.437Z,32.95
2022-10-13T01:30:16.022Z,30.98
2022-10-13T01:33:07.311Z,32.85
2022-10-13T01:35:53.534Z,28.45
2022-10-13T01:38:26.203Z,31.80
2022-10-13T01:41:05.914Z,35.10
2022-10-13T01:43:38.390Z,37.60
2022-10-13T01:46:14.009Z,31.63
2022-10-13T01:48:43.655Z,34.92
2022-10-13T01:51:14.450Z,32.30
2022-10-13T01:53:42.706Z,28.90
2022-10-13T01:56:09.528Z,32.60
2022-10-13T01:58:38.095Z,28.98
2022-10-13T02:01:34.975Z,31.25
2022-10-13T02:04:10.143Z,28.13
2022-10-13T02:06:46.291Z,32.00
2022-10-13T02:09:35.807Z,31.25
2022-10-13T02:12:08.280Z,31.40
2022-10-13T02:14:38.366Z,33.28
2022-10-13T02:17:05.804Z,30.52
2022-10-13T02:19:38.363Z,31.70
2022-10-13T02:22:07.817Z,29.05
2022-10-13T02:24:34.702Z,32.75
2022-10-13T02:27:06.047Z,32.80
2022-10-13T02:29:32.840Z,31.85
2022-10-13T02:31:59.440Z,34.65
2022-10-13T02:34:26.240Z,40.28
2022-10-13T02:36:52.910Z,35.03
2022-10-13T02:39:19.670Z,36.17
2022-10-13T02:41:46.452Z,35.13
2022-10-13T02:44:12.957Z,41.90
2022-10-13T02:46:39.475Z,41.28
2022-10-13T02:49:06.031Z,37.28
2022-10-13T02:51:37.486Z,40.67
2022-10-13T02:54:06.493Z,39.20
2022-10-13T02:56:33.163Z,35.38
2022-10-13T02:58:59.916Z,42.38
2022-10-13T03:01:26.523Z,44.30
2022-10-13T03:03:53.158Z,48.63
2022-10-13T03:06:19.839Z,41.13
2022-10-13T03:08:46.496Z,41.72
2022-10-13T03:11:13.171Z,40.50
2022-10-13T03:13:39.984Z,36.35
2022-10-13T03:16:07.365Z,39.40
2022-10-13T03:18:34.436Z,39.30
2022-10-13T03:21:03.800Z,36.75
2022-10-13T03:23:30.428Z,38.70
2022-10-13T03:25:57.088Z,34.05
2022-10-13T03:28:23.858Z,43.25
2022-10-13T03:30:50.571Z,42.22
2022-10-13T03:33:17.271Z,42.80
2022-10-13T03:35:44.776Z,43.17
2022-10-13T03:38:11.549Z,44.15
2022-10-13T03:40:38.420Z,44.90
2022-10-13T03:43:04.995Z,49.10
2022-10-13T03:45:31.629Z,38.38
2022-10-13T03:47:58.848Z,38.78
2022-10-13T03:50:25.678Z,42.90
2022-10-13T03:52:52.240Z,43.25
2022-10-13T03:55:18.868Z,37.45
2022-10-13T03:57:45.518Z,40.13
2022-10-13T04:00:13.041Z,37.97
2022-10-13T04:02:39.731Z,48.33
2022-10-13T04:05:06.557Z,47.22
2022-10-13T04:07:33.454Z,39.28
2022-10-13T04:10:00.037Z,44.40
2022-10-13T04:12:27.232Z,49.42
2022-10-13T04:14:53.992Z,38.45
2022-10-13T04:17:20.540Z,37.05
2022-10-13T04:19:47.333Z,41.22
2022-10-13T04:22:13.891Z,42.08
2022-10-13T04:24:40.573Z,38.00
2022-10-13T04:27:07.260Z,36.08
2022-10-13T04:29:33.875Z,41.83
2022-10-13T04:32:00.743Z,40.10
2022-10-13T04:34:27.360Z,46.65
2022-10-13T04:36:54.030Z,42.83
2022-10-13T04:39:20.750Z,39.80
2022-10-13T04:41:47.384Z,45.00
2022-10-13T04:44:14.035Z,38.70
2022-10-13T04:46:40.721Z,41.13
2022-10-13T04:49:07.390Z,38.10
2022-10-13T04:51:34.138Z,41.42
2022-10-13T04:54:02.414Z,41.72
2022-10-13T04:56:29.181Z,42.92
2022-10-13T04:58:55.959Z,43.00
2022-10-13T05:01:24.622Z,49.55
2022-10-13T05:03:53.699Z,70.47
2022-10-13T05:06:23.414Z,51.67
2022-10-13T05:08:50.589Z,39.55
2022-10-13T05:11:20.010Z,45.90
2022-10-13T05:13:48.167Z,42.40
2022-10-13T05:16:17.950Z,42.03
2022-10-13T05:18:45.226Z,43.25
2022-10-13T05:21:20.858Z,47.60
2022-10-13T05:23:48.191Z,45.35
2022-10-13T05:26:17.692Z,45.53
2022-10-13T05:28:44.776Z,45.70
2022-10-13T05:31:21.539Z,48.15
2022-10-13T05:33:49.121Z,47.75
2022-10-13T05:36:18.789Z,52.83
2022-10-13T05:38:45.727Z,50.20
2022-10-13T05:41:14.438Z,56.30
2022-10-13T05:43:42.333Z,52.67
2022-10-13T05:46:09.833Z,55.33
2022-10-13T05:48:37.200Z,54.58
2022-10-13T05:51:10.219Z,62.53
2022-10-13T05:53:49.715Z,60.47
2022-10-13T05:56:23.466Z,62.17
2022-10-13T05:58:54.713Z,59.35
2022-10-13T06:01:25.777Z,62.90
2022-10-13T06:03:55.961Z,60.80
2022-10-13T06:06:27.838Z,57.25
2022-10-13T06:08:57.195Z,59.78
2022-10-13T06:11:23.900Z,66.60
2022-10-13T06:13:50.496Z,66.63
2022-10-13T06:16:18.428Z,63.03
2022-10-13T06:18:45.227Z,62.05
2022-10-13T06:21:15.041Z,65.28
2022-10-13T06:23:41.875Z,60.42
2022-10-13T06:26:10.979Z,59.83
2022-10-13T06:28:37.823Z,63.30
2022-10-13T06:31:06.719Z,57.35
2022-10-13T06:33:34.728Z,64.80
2022-10-13T06:36:03.453Z,62.17
2022-10-13T06:38:30.586Z,69.72
2022-10-13T06:41:07.641Z,65.40
2022-10-13T06:43:40.160Z,62.13
2022-10-13T06:46:08.097Z,68.07
2022-10-13T06:48:35.519Z,69.93
2022-10-13T06:51:08.107Z,63.75
2022-10-13T06:53:34.959Z,69.55
2022-10-13T06:56:03.177Z,66.97
2022-10-13T06:58:29.945Z,65.80
2022-10-13T07:00:56.794Z,65.05
2022-10-13T07:03:25.137Z,56.10
2022-10-13T07:05:51.916Z,65.03
2022-10-13T07:08:19.168Z,57.63
2022-10-13T07:10:45.775Z,58.38
2022-10-13T07:13:12.647Z,62.50
2022-10-13T07:15:40.361Z,60.28
2022-10-13T07:18:07.970Z,53.78
2022-10-13T07:20:34.930Z,64.57
2022-10-13T07:23:02.220Z,53.38
2022-10-13T07:25:29.307Z,52.67
2022-10-13T07:27:55.978Z,49.60
2022-10-13T07:30:22.721Z,50.78
2022-10-13T07:32:49.574Z,53.15
2022-10-13T07:35:16.568Z,53.05
2022-10-13T07:37:43.181Z,59.72
2022-10-13T07:40:10.411Z,52.70
2022-10-13T07:42:37.023Z,57.30
2022-10-13T07:45:03.934Z,65.22
2022-10-13T07:47:30.554Z,66.88
2022-10-13T07:49:57.232Z,54.42
2022-10-13T07:52:23.835Z,68.20
2022-10-13T07:54:51.376Z,71.70
2022-10-13T07:57:18.473Z,72.25
2022-10-13T07:59:45.254Z,70.20
2022-10-13T08:02:11.848Z,70.32
2022-10-13T08:04:39.170Z,69.35
2022-10-13T08:07:06.692Z,58.75
2022-10-13T08:09:34.242Z,73.43
2022-10-13T08:12:01.950Z,78.10
2022-10-13T08:14:29.811Z,70.47
2022-10-13T08:16:57.840Z,67.97
2022-10-13T08:19:26.599Z,65.13
2022-10-13T08:21:58.766Z,61.72
2022-10-13T08:24:27.927Z,56.85
2022-10-13T08:26:56.706Z,63.55
2022-10-13T08:29:24.303Z,70.45
2022-10-13T08:31:53.208Z,69.68
2022-10-13T08:34:21.229Z,70.85
2022-10-13T08:36:48.012Z,73.82
2022-10-13T08:39:14.588Z,71.47
2022-10-13T08:41:44.129Z,73.05
2022-10-13T08:45:02.719Z,64.40
2022-10-13T08:47:23.954Z,69.35
2022-10-13T08:52:23.267Z,58.45
2022-10-13T08:54:50.968Z,73.05
2022-10-13T08:57:18.755Z,51.90
2022-10-13T08:59:46.659Z,59.38
2022-10-13T09:02:27.148Z,58.72
2022-10-13T09:04:54.219Z,52.55
2022-10-13T09:07:28.421Z,58.20
2022-10-13T09:09:56.586Z,65.25
2022-10-13T09:12:25.131Z,60.97
2022-10-13T09:15:10.209Z,60.08
2022-10-13T09:17:38.874Z,61.55
2022-10-13T09:20:25.308Z,49.70
2022-10-13T09:23:14.703Z,56.08
2022-10-13T09:25:50.660Z,48.03
2022-10-13T09:28:24.518Z,42.47
2022-10-13T09:31:04.400Z,50.45
2022-10-13T09:33:40.279Z,41.03
2022-10-13T09:36:17.818Z,50.88
2022-10-13T09:39:08.903Z,47.65
2022-10-13T09:41:36.336Z,37.67
2022-10-13T09:44:16.577Z,45.58
2022-10-13T09:46:56.311Z,42.63
2022-10-13T09:49:39.565Z,46.45
2022-10-13T09:52:23.729Z,47.15
2022-10-13T09:54:53.342Z,46.47
2022-10-13T09:57:28.804Z,45.13
2022-10-13T10:00:07.793Z,48.10
2022-10-13T10:02:41.024Z,45.75
2022-10-13T10:05:29.047Z,49.55
2022-10-13T10:08:06.664Z,41.28
2022-10-13T10:10:36.128Z,36.38
2022-10-13T10:13:03.993Z,39.08
2022-10-13T10:15:59.833Z,34.03
2022-10-13T10:18:48.424Z,35.53
2022-10-13T10:21:43.437Z,34.53
2022-10-13T10:24:36.160Z,42.33
2022-10-13T10:29:50.057Z,36.80
2022-10-13T10:32:38.346Z,31.45
2022-10-13T10:35:13.887Z,36.80
2022-10-13T10:38:03.909Z,33.83
2022-10-13T10:40:49.778Z,29.65
2022-10-13T10:43:37.388Z,35.47
2022-10-13T10:46:12.975Z,25.63
2022-10-13T10:48:40.399Z,34.45
2022-10-13T10:51:09.723Z,27.02
2022-10-13T10:53:39.392Z,37.33
2022-10-13T10:56:27.904Z,34.72
2022-10-13T10:59:06.950Z,32.70
2022-10-13T11:01:39.825Z,25.48
2022-10-13T11:04:33.327Z,23.98
2022-10-13T11:06:59.920Z,29.40
2022-10-13T11:09:42.121Z,26.15
2022-10-13T11:12:21.768Z,29.35
2022-10-13T11:14:54.917Z,41.35
2022-10-13T11:17:28.726Z,24.70
2022-10-13T11:19:56.623Z,21.42
2022-10-13T11:22:28.466Z,28.92
2022-10-13T11:25:23.307Z,22.67
2022-10-13T11:27:50.194Z,28.38
2022-10-13T11:30:47.653Z,22.65
2022-10-13T11:33:34.566Z,25.23
2022-10-13T11:36:32.168Z,20.92
2022-10-13T11:39:16.993Z,23.52
2022-10-13T11:41:54.991Z,24.73
2022-10-13T11:44:48.628Z,23.88
2022-10-13T11:48:03.574Z,29.08
2022-10-13T11:51:03.918Z,17.52
2022-10-13T11:53:53.483Z,29.17
2022-10-13T11:56:31.888Z,18.63
2022-10-13T11:58:59.091Z,22.85
2022-10-13T12:01:25.686Z,22.20
2022-10-13T12:03:53.759Z,28.75
2022-10-13T12:06:37.025Z,25.33
2022-10-13T12:09:14.567Z,22.80
2022-10-13T12:11:41.718Z,17.80
2022-10-13T12:14:29.131Z,20.63
2022-10-13T12:16:58.101Z,26.30
2022-10-13T12:19:27.820Z,22.92
2022-10-13T12:22:00.905Z,23.55
2022-10-13T12:24:30.243Z,25.35
2022-10-13T12:26:58.736Z,23.80
2022-10-13T12:29:31.040Z,24.77
2022-10-13T12:32:00.429Z,23.60
2022-10-13T12:34:32.454Z,25.00
2022-10-13T12:37:14.216Z,22.55
2022-10-13T12:42:13.082Z,25.50
2022-10-13T12:44:42.072Z,16.00
2022-10-13T12:47:43.833Z,19.00
2022-10-13T12:50:27.419Z,19.58
2022-10-13T12:53:09.327Z,21.77
2022-10-13T12:55:45.521Z,19.02
2022-10-13T12:58:33.081Z,29.02
2022-10-13T13:01:16.859Z,19.20
2022-10-13T13:03:43.968Z,28.33
2022-10-13T13:06:22.775Z,23.15
2022-10-13T13:09:24.467Z,26.20
2022-10-13T13:12:26.646Z,19.92
2022-10-13T13:14:55.124Z,22.70
2022-10-13T13:17:45.729Z,22.30
2022-10-13T13:20:29.245Z,22.27
2022-10-13T13:22:56.268Z,19.58
2022-10-13T13:25:23.840Z,16.83
2022-10-13T13:27:51.939Z,21.92
2022-10-13T13:30:21.444Z,20.95
2022-10-13T13:32:49.281Z,24.17
2022-10-13T13:35:16.479Z,22.98
2022-10-13T13:37:50.608Z,19.80
2022-10-13T13:40:20.266Z,28.90
2022-10-13T13:42:47.072Z,15.63
2022-10-13T13:45:14.956Z,18.63
2022-10-13T13:47:42.163Z,14.40
2022-10-13T13:50:18.217Z,16.70
2022-10-13T13:52:44.866Z,32.90
2022-10-13T13:55:11.461Z,24.75
2022-10-13T13:57:38.529Z,22.90
2022-10-13T14:00:09.614Z,21.48
2022-10-13T14:02:36.327Z,34.13
2022-10-13T14:05:03.955Z,21.52
2022-10-13T14:07:30.951Z,22.33
2022-10-13T14:10:01.808Z,21.33
2022-10-13T14:12:33.005Z,20.58
2022-10-13T14:14:59.799Z,15.98
2022-10-13T14:17:27.263Z,22.80
2022-10-13T14:19:54.601Z,18.90
2022-10-13T14:22:22.461Z,13.95
2022-10-13T14:24:49.648Z,25.20
2022-10-13T14:27:16.485Z,21.40
2022-10-13T14:29:43.111Z,17.67
2022-10-13T14:32:09.865Z,15.43
2022-10-13T14:34:36.418Z,25.80
2022-10-13T14:37:03.000Z,20.40
2022-10-13T14:39:29.879Z,14.55
2022-10-13T14:41:56.742Z,19.50
2022-10-13T14:44:23.364Z,21.15
2022-10-13T14:46:50.118Z,20.15
2022-10-13T14:49:16.580Z,16.58
2022-10-13T14:51:43.627Z,27.20
2022-10-13T14:54:10.541Z,18.55
2022-10-13T14:56:37.456Z,20.65
2022-10-13T14:59:07.057Z,16.70
2022-10-13T15:01:34.189Z,25.25
2022-10-13T15:04:01.763Z,24.20
2022-10-13T15:06:28.682Z,17.85
2022-10-13T15:08:55.434Z,19.83
2022-10-13T15:11:23.131Z,19.42
2022-10-13T15:13:49.866Z,26.38
2022-10-13T15:16:21.876Z,25.80
2022-10-13T15:18:48.807Z,25.05
2022-10-13T15:21:16.818Z,21.70
2022-10-13T15:23:44.232Z,23.50
2022-10-13T15:26:12.121Z,20.55
2022-10-13T15:28:41.758Z,18.48
2022-10-13T15:31:08.845Z,20.92
2022-10-13T15:33:35.431Z,20.35
2022-10-13T15:36:02.191Z,28.65
2022-10-13T15:38:28.895Z,26.17
2022-10-13T15:41:03.334Z,17.13
2022-10-13T15:43:31.150Z,21.27
2022-10-13T15:46:02.295Z,20.88
2022-10-13T15:48:29.405Z,22.65
2022-10-13T15:50:56.223Z,24.55
2022-10-13T15:53:23.696Z,20.15
2022-10-13T15:55:50.398Z,30.20
2022-10-13T15:58:17.481Z,29.17
2022-10-13T16:00:44.288Z,25.38
2022-10-13T16:03:18.305Z,22.42
2022-10-13T16:05:46.614Z,20.30
2022-10-13T16:08:14.330Z,25.65
2022-10-13T16:10:42.344Z,26.98
2022-10-13T16:13:12.535Z,22.60
2022-10-13T16:15:39.473Z,20.83
2022-10-13T16:18:06.553Z,16.33
2022-10-13T16:20:37.478Z,26.02
2022-10-13T16:23:04.921Z,22.95
2022-10-13T16:25:32.176Z,30.80
2022-10-13T16:27:59.944Z,27.98
2022-10-13T16:30:27.413Z,39.15
2022-10-13T16:32:54.161Z,44.88
2022-10-13T16:35:20.931Z,56.03
2022-10-13T16:37:48.910Z,58.78
2022-10-13T16:40:15.802Z,50.13
2022-10-13T16:42:43.323Z,51.25
2022-10-13T16:45:10.255Z,59.38
2022-10-13T16:47:36.943Z,53.78
2022-10-13T16:50:09.281Z,45.78
2022-10-13T16:52:37.680Z,48.45
2022-10-13T16:55:05.457Z,44.00
2022-10-13T16:57:32.616Z,43.40
2022-10-13T16:59:59.329Z,40.58
2022-10-13T17:02:26.103Z,35.75
2022-10-13T17:04:53.094Z,40.65
2022-10-13T17:07:19.968Z,28.75
2022-10-13T17:09:47.264Z,27.75
2022-10-13T17:12:13.903Z,29.30
2022-10-13T17:14:40.445Z,30.45
2022-10-13T17:17:07.201Z,34.45
2022-10-13T17:19:34.060Z,24.42
2022-10-13T17:22:00.613Z,28.40
2022-10-13T17:24:27.607Z,32.80
2022-10-13T17:26:54.316Z,25.73
2022-10-13T17:29:21.293Z,29.65
2022-10-13T17:31:48.224Z,30.83
2022-10-13T17:34:15.295Z,27.48
2022-10-13T17:36:41.884Z,28.98
2022-10-13T17:39:09.995Z,31.33
2022-10-13T17:41:37.341Z,26.83
2022-10-13T17:44:04.307Z,36.40
2022-10-13T17:46:37.422Z,23.80
2022-10-13T17:49:06.347Z,27.50
2022-10-13T17:51:32.905Z,38.42
2022-10-13T17:54:00.500Z,37.10
2022-10-13T17:56:28.856Z,33.83
2022-10-13T17:58:55.639Z,30.63
2022-10-13T18:01:31.765Z,30.95
2022-10-13T18:04:01.567Z,29.42
2022-10-13T18:06:33.823Z,28.52
2022-10-13T18:09:11.233Z,34.42
2022-10-13T18:11:38.232Z,34.25
2022-10-13T18:14:05.546Z,26.17
2022-10-13T18:16:32.697Z,30.98
2022-10-13T18:19:04.279Z,27.23
2022-10-13T18:24:02.502Z,25.70
2022-10-13T18:26:37.325Z,29.60
2022-10-13T18:29:05.949Z,27.00
2022-10-13T18:31:34.434Z,29.45
2022-10-13T18:34:04.104Z,34.42
2022-10-13T18:36:32.520Z,35.63
2022-10-13T18:39:04.203Z,29.23
2022-10-13T18:43:57.682Z,28.05
2022-10-13T18:46:24.438Z,27.17
2022-10-13T18:48:51.125Z,23.17
2022-10-13T18:51:19.200Z,26.77
2022-10-13T18:53:47.843Z,32.22
2022-10-13T18:56:24.106Z,27.95
2022-10-13T18:58:58.414Z,33.78
2022-10-13T19:01:27.913Z,30.83
2022-10-13T19:03:55.022Z,32.22
2022-10-13T19:06:26.940Z,35.60
2022-10-13T19:09:04.073Z,34.58
2022-10-13T19:11:32.710Z,26.48
2022-10-13T19:14:00.650Z,27.98
2022-10-13T19:16:29.533Z,28.15
2022-10-13T19:18:56.602Z,34.25
2022-10-13T19:21:23.842Z,28.58
2022-10-13T19:23:50.717Z,29.58
2022-10-13T19:26:21.020Z,24.63
2022-10-13T19:28:48.096Z,24.55
2022-10-13T19:31:20.158Z,32.65
2022-10-13T19:33:50.910Z,25.60
2022-10-13T19:36:38.168Z,37.45
2022-10-13T19:39:13.251Z,24.70
2022-10-13T19:41:42.270Z,25.33
2022-10-13T19:44:11.080Z,28.80
2022-10-13T19:46:38.715Z,30.13
2022-10-13T19:49:05.907Z,36.60
2022-10-13T19:51:34.418Z,35.00
2022-10-13T19:54:01.631Z,29.73
2022-10-13T19:56:31.828Z,31.48
2022-10-13T19:58:59.448Z,33.22
2022-10-13T20:01:26.850Z,31.00
2022-10-13T20:03:54.120Z,30.42
2022-10-13T20:06:22.245Z,29.73
2022-10-13T20:08:49.421Z,33.78
2022-10-13T20:11:23.882Z,30.70
2022-10-13T20:13:52.504Z,38.50
2022-10-13T20:16:21.879Z,33.50
2022-10-13T20:18:53.722Z,28.75
2022-10-13T20:21:35.047Z,30.23
2022-10-13T20:24:01.747Z,33.72
2022-10-13T20:26:28.499Z,39.58
2022-10-13T20:28:55.602Z,32.30
2022-10-13T20:31:22.627Z,33.45
2022-10-13T20:33:54.528Z,30.30
2022-10-13T20:36:21.906Z,28.85
2022-10-13T20:38:49.288Z,34.10
2022-10-13T20:41:19.499Z,28.63
2022-10-13T20:43:47.619Z,30.30
2022-10-13T20:46:16.063Z,32.13
2022-10-13T20:49:09.491Z,34.30
2022-10-13T20:51:30.053Z,31.42
2022-10-13T20:53:56.656Z,34.63
2022-10-13T20:56:32.985Z,31.50
2022-10-13T20:59:09.730Z,28.77
2022-10-13T21:01:37.450Z,27.98
2022-10-13T21:04:04.674Z,31.67
2022-10-13T21:06:31.402Z,32.40
2022-10-13T21:08:58.118Z,30.73
2022-10-13T21:11:26.166Z,27.42
2022-10-13T21:13:53.286Z,27.35
2022-10-13T21:16:23.565Z,33.75
2022-10-13T21:18:52.017Z,28.05
2022-10-13T21:21:23.965Z,31.17
2022-10-13T21:23:56.233Z,26.33
2022-10-13T21:26:25.159Z,22.80
2022-10-13T21:28:52.525Z,27.50
2022-10-13T21:31:22.148Z,30.33
2022-10-13T21:33:49.709Z,28.75
2022-10-13T21:36:24.482Z,28.42
2022-10-13T21:38:54.333Z,42.30
2022-10-13T21:41:21.660Z,29.08
2022-10-13T21:43:49.976Z,24.58
2022-10-13T21:46:28.255Z,36.90
2022-10-13T21:48:57.095Z,31.02
2022-10-13T21:51:29.220Z,32.63
2022-10-13T21:53:58.220Z,38.58
2022-10-13T21:56:26.690Z,31.80
2022-10-13T21:58:54.706Z,35.15
2022-10-13T22:01:22.622Z,37.22
2022-10-13T22:03:56.242Z,38.85
2022-10-13T22:06:23.250Z,33.33
2022-10-13T22:08:51.642Z,37.05
2022-10-13T22:11:19.708Z,32.42
2022-10-13T22:13:46.459Z,29.83
2022-10-13T22:16:19.045Z,30.88
2022-10-13T22:18:46.571Z,34.50
2022-10-13T22:21:16.317Z,35.05
2022-10-13T22:23:43.800Z,37.53
2022-10-13T22:26:12.457Z,35.63
2022-10-13T22:28:39.438Z,35.92
2022-10-13T22:31:11.430Z,29.15
2022-10-13T22:33:43.957Z,28.02
2022-10-13T22:36:14.611Z,33.80
2022-10-13T22:38:41.837Z,31.95
2022-10-13T22:41:09.283Z,29.50
2022-10-13T22:43:36.727Z,35.20
2022-10-13T22:46:04.097Z,34.50
2022-10-13T22:48:30.713Z,35.55
2022-10-13T22:50:57.854Z,29.63
2022-10-13T22:53:24.542Z,31.02
2022-10-13T22:55:51.743Z,29.77
2022-10-13T22:58:18.330Z,34.33
2022-10-13T23:00:44.963Z,33.15
2022-10-13T23:03:14.164Z,29.60
2022-10-13T23:05:42.803Z,28.50
2022-10-13T23:08:10.151Z,36.67
2022-10-13T23:10:37.349Z,33.05
2022-10-13T23:13:04.854Z,38.22
2022-10-13T23:15:32.216Z,35.58
2022-10-13T23:17:58.855Z,33.30
2022-10-13T23:20:25.435Z,33.33
2022-10-13T23:22:52.158Z,29.15
2022-10-13T23:25:18.781Z,28.50
2022-10-13T23:27:45.271Z,30.52
2022-10-13T23:30:12.474Z,31.25
2022-10-13T23:32:39.254Z,32.63
2022-10-13T23:35:06.266Z,33.53
2022-10-13T23:37:32.869Z,32.38
2022-10-13T23:39:59.471Z,30.27
2022-10-13T23:42:26.150Z,30.73
2022-10-13T23:44:52.748Z,32.67
2022-10-13T23:47:19.792Z,30.88
2022-10-13T23:49:46.560Z,31.58
2022-10-13T23:52:13.186Z,35.03
2022-10-13T23:54:39.765Z,28.70
2022-10-13T23:57:06.374Z,33.95
2022-10-13T23:59:33.364Z,34.65
